createdAt,value
2023-03-07T00:02:01.222Z,40.50
2023-03-07T00:07:07.003Z,35.50
2023-03-07T00:12:12.768Z,34.30
2023-03-07T00:17:18.753Z,37.80
2023-03-07T00:22:25.182Z,38.00
2023-03-07T00:27:32.017Z,38.30
2023-03-07T00:32:38.157Z,33.20
2023-03-07T00:37:44.064Z,31.00
2023-03-07T00:42:50.981Z,34.10
2023-03-07T00:47:57.558Z,34.70
2023-03-07T00:53:03.875Z,35.20
2023-03-07T00:58:09.993Z,30.90
2023-03-07T01:03:15.873Z,22.80
2023-03-07T01:08:22.933Z,21.90
2023-03-07T01:13:29.996Z,24.00
2023-03-07T01:18:35.751Z,26.30
2023-03-07T01:23:42.061Z,25.30
2023-03-07T01:28:50.404Z,23.60
2023-03-07T01:33:56.928Z,22.10
2023-03-07T01:39:06.812Z,20.70
2023-03-07T01:44:20.422Z,20.30
2023-03-07T01:49:30.148Z,20.20
2023-03-07T01:54:49.019Z,21.70
2023-03-07T02:00:01.041Z,19.20
2023-03-07T02:05:14.496Z,18.30
2023-03-07T02:10:22.726Z,20.80
2023-03-07T02:15:29.315Z,22.20
2023-03-07T02:20:43.413Z,21.80
2023-03-07T02:25:58.461Z,22.20
2023-03-07T02:31:07.482Z,22.80
2023-03-07T02:36:19.392Z,23.10
2023-03-07T02:41:38.507Z,20.80
2023-03-07T02:46:51.492Z,24.30
2023-03-07T02:52:00.696Z,30.90
2023-03-07T02:57:07.415Z,25.40
2023-03-07T03:02:13.735Z,24.70
2023-03-07T03:07:20.013Z,25.50
2023-03-07T03:12:26.307Z,25.30
2023-03-07T03:17:32.315Z,24.80
2023-03-07T03:22:38.356Z,25.20
2023-03-07T03:27:44.665Z,25.40
2023-03-07T03:32:51.486Z,25.10
2023-03-07T03:37:58.222Z,25.70
2023-03-07T03:43:04.928Z,24.90
2023-03-07T03:48:11.207Z,27.30
2023-03-07T03:53:17.072Z,25.90
2023-03-07T03:58:22.781Z,25.30
2023-03-07T04:03:28.915Z,27.10
2023-03-07T04:08:35.553Z,28.10
2023-03-07T04:13:41.652Z,27.70
2023-03-07T04:18:47.372Z,31.30
2023-03-07T04:23:57.221Z,30.90
2023-03-07T04:29:05.903Z,28.70
2023-03-07T04:34:15.553Z,30.20
2023-03-07T04:39:21.567Z,33.00
2023-03-07T04:44:27.841Z,34.80
2023-03-07T04:49:33.942Z,40.80
2023-03-07T04:54:41.008Z,38.00
2023-03-07T04:59:47.606Z,38.00
2023-03-07T05:04:54.184Z,39.00
2023-03-07T05:10:01.186Z,32.70
2023-03-07T05:15:10.300Z,38.70
2023-03-07T05:20:16.441Z,41.20
2023-03-07T05:25:22.560Z,42.70
2023-03-07T05:30:29.358Z,42.40
2023-03-07T05:35:35.678Z,47.20
2023-03-07T05:40:42.413Z,41.40
2023-03-07T05:45:50.981Z,41.90
2023-03-07T05:51:01.276Z,46.10
2023-03-07T06:01:12.375Z,48.70
2023-03-07T06:06:19.492Z,38.10
2023-03-07T06:11:25.737Z,36.90
2023-03-07T06:16:31.749Z,37.30
2023-03-07T06:21:38.527Z,40.60
2023-03-07T06:26:45.501Z,38.00
2023-03-07T06:31:52.197Z,33.50
2023-03-07T06:36:58.342Z,35.80
2023-03-07T06:42:04.828Z,37.90
2023-03-07T06:47:11.473Z,38.80
2023-03-07T06:52:17.461Z,44.80
2023-03-07T06:57:23.823Z,39.40
2023-03-07T07:02:29.893Z,37.30
2023-03-07T07:07:36.181Z,36.70
2023-03-07T07:12:42.696Z,40.10
2023-03-07T07:17:51.397Z,45.40
2023-03-07T07:22:58.076Z,40.10
2023-03-07T07:28:04.308Z,38.40
2023-03-07T07:33:10.405Z,39.30
2023-03-07T07:38:16.483Z,40.00
2023-03-07T07:43:22.657Z,39.50
2023-03-07T07:48:37.738Z,45.30
2023-03-07T07:53:43.616Z,33.70
2023-03-07T07:58:50.540Z,36.50
2023-03-07T08:03:56.454Z,42.70
2023-03-07T08:09:03.169Z,40.50
2023-03-07T08:14:09.871Z,37.50
2023-03-07T08:19:15.966Z,40.00
2023-03-07T08:24:32.047Z,37.30
2023-03-07T08:29:48.088Z,33.70
2023-03-07T08:34:54.229Z,29.40
2023-03-07T08:40:00.157Z,27.80
2023-03-07T08:45:08.221Z,24.50
2023-03-07T08:50:14.500Z,20.40
2023-03-07T08:55:21.277Z,28.00
2023-03-07T09:00:27.222Z,21.90
2023-03-07T09:05:36.807Z,19.00
2023-03-07T09:10:42.640Z,19.10
2023-03-07T09:15:48.377Z,19.00
2023-03-07T09:20:54.416Z,25.10
2023-03-07T09:26:02.047Z,25.30
2023-03-07T09:31:11.081Z,21.80
2023-03-07T09:36:19.602Z,22.50
2023-03-07T09:41:52.256Z,23.10
2023-03-07T09:47:11.014Z,23.00
2023-03-07T09:52:20.587Z,21.70
2023-03-07T09:57:28.722Z,25.20
2023-03-07T10:02:39.296Z,23.60
2023-03-07T10:07:45.501Z,27.30
2023-03-07T10:13:04.904Z,25.70
2023-03-07T10:18:39.891Z,27.10
2023-03-07T10:24:20.343Z,26.30
2023-03-07T10:29:31.283Z,26.00
2023-03-07T10:39:49.697Z,45.80
2023-03-07T10:44:55.524Z,26.90
2023-03-07T10:50:18.230Z,27.30
2023-03-07T10:55:37.122Z,28.10
2023-03-07T11:00:47.256Z,29.40
2023-03-07T11:05:53.982Z,31.30
2023-03-07T11:11:00.978Z,30.90
2023-03-07T11:16:20.407Z,31.20
2023-03-07T11:21:32.809Z,30.40
2023-03-07T11:26:41.726Z,31.80
2023-03-07T11:31:58.519Z,30.00
2023-03-07T11:37:23.676Z,29.60
2023-03-07T11:42:35.131Z,33.10
2023-03-07T11:53:21.809Z,29.20
2023-03-07T11:59:10.013Z,28.70
2023-03-07T12:04:38.721Z,30.20
2023-03-07T12:09:55.344Z,27.90
2023-03-07T12:15:19.699Z,30.50
2023-03-07T12:20:31.035Z,33.50
2023-03-07T12:25:40.173Z,29.70
2023-03-07T12:31:02.251Z,27.80
2023-03-07T12:36:16.537Z,25.00
2023-03-07T12:41:32.305Z,25.90
2023-03-07T12:46:47.016Z,23.70
2023-03-07T12:52:00.013Z,23.50
2023-03-07T12:57:10.198Z,22.60
2023-03-07T13:02:21.988Z,22.40
2023-03-07T13:07:30.812Z,21.80
2023-03-07T13:12:38.376Z,20.30
2023-03-07T13:18:01.191Z,20.20
2023-03-07T13:23:32.400Z,21.70
2023-03-07T13:33:48.089Z,22.80
2023-03-07T13:38:54.415Z,21.70
2023-03-07T13:44:04.801Z,21.80
2023-03-07T13:49:11.048Z,22.60
2023-03-07T13:54:16.935Z,21.60
2023-03-07T13:59:28.668Z,20.80
2023-03-07T14:04:41.244Z,19.40
2023-03-07T14:09:50.970Z,21.50
2023-03-07T14:15:13.054Z,20.90
2023-03-07T14:20:28.035Z,20.40
2023-03-07T14:25:35.969Z,18.70
2023-03-07T14:30:42.115Z,20.20
2023-03-07T14:35:49.109Z,19.40
2023-03-07T14:41:23.210Z,17.20
2023-03-07T14:46:36.385Z,17.60
2023-03-07T14:51:44.735Z,19.70
2023-03-07T14:56:54.156Z,16.00
2023-03-07T15:02:00.117Z,17.30
2023-03-07T15:07:20.685Z,17.80
2023-03-07T15:12:30.332Z,16.70
2023-03-07T15:17:44.055Z,18.10
2023-03-07T15:22:52.393Z,16.50
2023-03-07T15:28:04.458Z,17.90
2023-03-07T15:33:22.423Z,16.70
2023-03-07T15:38:29.343Z,16.50
2023-03-07T15:43:37.520Z,16.60
2023-03-07T15:48:48.729Z,16.90
2023-03-07T15:59:05.114Z,17.90
2023-03-07T16:04:30.640Z,19.10
2023-03-07T16:09:36.345Z,17.40
2023-03-07T16:14:42.422Z,14.50
2023-03-07T16:19:49.784Z,15.40
2023-03-07T16:24:55.758Z,16.00
2023-03-07T16:30:02.534Z,15.90
2023-03-07T16:35:16.616Z,14.80
2023-03-07T16:40:23.455Z,16.60
2023-03-07T16:45:30.747Z,15.50
2023-03-07T16:50:36.897Z,17.50
2023-03-07T16:55:43.291Z,16.40
2023-03-07T17:00:50.463Z,17.20
2023-03-07T17:05:56.446Z,15.70
2023-03-07T17:11:02.557Z,16.00
2023-03-07T17:16:12.338Z,15.80
2023-03-07T17:21:21.586Z,14.60
2023-03-07T17:26:31.892Z,16.30
2023-03-07T17:31:37.733Z,15.30
2023-03-07T17:36:43.729Z,15.50
2023-03-07T17:41:50.728Z,16.10
2023-03-07T17:46:56.856Z,17.10
2023-03-07T17:52:06.290Z,16.60
2023-03-07T17:57:12.494Z,17.00
2023-03-07T18:02:18.345Z,16.00
2023-03-07T18:07:24.954Z,16.80
2023-03-07T18:12:31.734Z,18.40
2023-03-07T18:17:47.709Z,17.70
2023-03-07T18:22:56.062Z,17.20
2023-03-07T18:28:05.791Z,18.40
2023-03-07T18:33:13.114Z,17.30
2023-03-07T18:38:20.457Z,19.10
2023-03-07T18:43:27.392Z,19.30
2023-03-07T18:48:34.794Z,17.50
2023-03-07T18:53:42.800Z,16.60
2023-03-07T18:58:54.404Z,17.00
2023-03-07T19:04:03.521Z,16.90
2023-03-07T19:09:15.956Z,15.90
2023-03-07T19:14:22.089Z,16.80
2023-03-07T19:19:28.003Z,16.60
2023-03-07T19:24:34.257Z,14.30
2023-03-07T19:29:39.890Z,14.70
2023-03-07T19:34:48.141Z,15.30
2023-03-07T19:39:54.722Z,15.10
2023-03-07T19:45:00.520Z,14.50
2023-03-07T19:50:07.701Z,12.40
2023-03-07T19:55:13.678Z,13.00
2023-03-07T20:00:21.527Z,13.30
2023-03-07T20:05:27.592Z,12.90
2023-03-07T20:10:33.501Z,12.60
2023-03-07T20:15:39.378Z,12.50
2023-03-07T20:20:45.709Z,13.20
2023-03-07T20:26:23.246Z,13.00
2023-03-07T20:31:29.449Z,12.20
2023-03-07T20:36:36.145Z,11.10
2023-03-07T20:41:42.703Z,11.30
2023-03-07T20:46:49.901Z,10.30
2023-03-07T20:51:55.904Z,9.90
2023-03-07T20:57:03.721Z,8.90
2023-03-07T21:02:09.615Z,9.40
2023-03-07T21:07:15.141Z,10.00
2023-03-07T21:12:21.104Z,8.80
2023-03-07T21:17:26.493Z,10.60
2023-03-07T21:22:32.238Z,12.20
2023-03-07T21:27:37.763Z,11.40
2023-03-07T21:32:43.499Z,10.90
2023-03-07T21:37:49.761Z,10.00
2023-03-07T21:42:55.230Z,9.10
2023-03-07T21:48:00.842Z,8.30
2023-03-07T21:53:06.380Z,7.50
2023-03-07T21:58:12.003Z,8.30
2023-03-07T22:03:18.087Z,8.50
2023-03-07T22:08:23.500Z,8.50
2023-03-07T22:13:29.773Z,7.50
2023-03-07T22:18:35.294Z,8.60
2023-03-07T22:23:40.908Z,9.90
2023-03-07T22:28:46.356Z,3.20
2023-03-07T22:33:52.628Z,3.20
2023-03-07T22:38:58.151Z,2.70
2023-03-07T22:44:03.989Z,3.00
2023-03-07T22:49:12.307Z,2.50
2023-03-07T22:54:17.798Z,3.60
2023-03-07T22:59:23.190Z,3.90
2023-03-07T23:04:30.562Z,3.30
2023-03-07T23:09:36.205Z,4.00
2023-03-07T23:14:41.735Z,4.50
2023-03-07T23:19:47.437Z,5.30
2023-03-07T23:24:53.079Z,3.70
2023-03-07T23:29:58.777Z,3.60
2023-03-07T23:35:05.178Z,3.00
2023-03-07T23:40:12.557Z,2.60
2023-03-07T23:45:19.625Z,2.10
2023-03-07T23:50:27.157Z,3.30
2023-03-07T23:55:32.759Z,3.90
